Malartic, Canada
Current Conditions -  °F | °C
As of 1:13 AM on Saturday 20 Dec 2014 (Local Time) from CYVO Reporting Station
Haze Haze  
Wind Chill: -6°   Ceiling: 200
Heat Index: -6°   Visibility: 6mi
Dew Point: -9°   Wind: 2mph
Humidity: 84%   Direction: NA
Pressure: 30.26"   Gusts: NA
Location:  48.13°N, 78.12°W
Report Text: CYVO 200613Z AUTO VRB02KT 6SM R18/2200FT/N BR OVC002 M21/M23 A3026 RMK SLP285
Loading
Personal Weather Stations






























Interactive Weather Map New forecast layout! Learn more

10-Day Weather Forecast

Advertisements
Track Severe Weather on mobile